sensor_id;sensor_type;location;lat;lon;timestamp;P1;durP1;ratioP1;P2;durP2;ratioP2
15340;SDS011;7770;52.158;5.372;2022-12-07T00:00:34;19.80;;;15.57;;
15340;SDS011;7770;52.158;5.372;2022-12-07T00:03:20;19.67;;;15.97;;
15340;SDS011;7770;52.158;5.372;2022-12-07T00:06:07;18.80;;;15.57;;
15340;SDS011;7770;52.158;5.372;2022-12-07T00:08:56;18.87;;;14.50;;
15340;SDS011;7770;52.158;5.372;2022-12-07T00:11:42;23.53;;;15.67;;
15340;SDS011;7770;52.158;5.372;2022-12-07T00:14:29;18.67;;;14.93;;
15340;SDS011;7770;52.158;5.372;2022-12-07T00:17:15;17.77;;;14.90;;
15340;SDS011;7770;52.158;5.372;2022-12-07T00:20:01;17.53;;;14.10;;
15340;SDS011;7770;52.158;5.372;2022-12-07T00:22:47;17.73;;;15.17;;
15340;SDS011;7770;52.158;5.372;2022-12-07T00:25:33;20.47;;;14.97;;
15340;SDS011;7770;52.158;5.372;2022-12-07T00:28:19;18.53;;;15.07;;
15340;SDS011;7770;52.158;5.372;2022-12-07T00:31:06;20.27;;;14.97;;
15340;SDS011;7770;52.158;5.372;2022-12-07T00:33:57;20.57;;;15.47;;
15340;SDS011;7770;52.158;5.372;2022-12-07T00:36:43;20.80;;;15.60;;
15340;SDS011;7770;52.158;5.372;2022-12-07T00:39:29;19.57;;;14.90;;
15340;SDS011;7770;52.158;5.372;2022-12-07T00:42:15;17.23;;;14.87;;
15340;SDS011;7770;52.158;5.372;2022-12-07T00:45:01;19.67;;;14.20;;
15340;SDS011;7770;52.158;5.372;2022-12-07T00:47:48;19.17;;;14.73;;
15340;SDS011;7770;52.158;5.372;2022-12-07T00:50:33;19.93;;;14.73;;
15340;SDS011;7770;52.158;5.372;2022-12-07T00:53:20;16.50;;;14.07;;
15340;SDS011;7770;52.158;5.372;2022-12-07T00:56:06;14.37;;;12.87;;
15340;SDS011;7770;52.158;5.372;2022-12-07T00:59:01;15.57;;;13.53;;
15340;SDS011;7770;52.158;5.372;2022-12-07T01:01:49;21.93;;;13.73;;
15340;SDS011;7770;52.158;5.372;2022-12-07T01:04:35;14.63;;;12.90;;
15340;SDS011;7770;52.158;5.372;2022-12-07T01:07:20;17.07;;;13.27;;
15340;SDS011;7770;52.158;5.372;2022-12-07T01:10:07;19.37;;;13.47;;
15340;SDS011;7770;52.158;5.372;2022-12-07T01:12:53;17.40;;;13.63;;
15340;SDS011;7770;52.158;5.372;2022-12-07T01:15:40;16.57;;;13.87;;
15340;SDS011;7770;52.158;5.372;2022-12-07T01:18:27;17.50;;;13.60;;
15340;SDS011;7770;52.158;5.372;2022-12-07T01:21:25;17.43;;;13.30;;
15340;SDS011;7770;52.158;5.372;2022-12-07T01:24:14;21.37;;;13.13;;
15340;SDS011;7770;52.158;5.372;2022-12-07T01:27:00;18.00;;;13.00;;
15340;SDS011;7770;52.158;5.372;2022-12-07T01:29:46;14.73;;;12.27;;
15340;SDS011;7770;52.158;5.372;2022-12-07T01:32:32;14.57;;;11.90;;
15340;SDS011;7770;52.158;5.372;2022-12-07T01:35:19;14.53;;;11.43;;
15340;SDS011;7770;52.158;5.372;2022-12-07T01:38:05;15.03;;;11.30;;
15340;SDS011;7770;52.158;5.372;2022-12-07T01:40:54;14.80;;;10.17;;
15340;SDS011;7770;52.158;5.372;2022-12-07T01:47:03;15.93;;;10.47;;
15340;SDS011;7770;52.158;5.372;2022-12-07T01:49:49;14.17;;;9.73;;
15340;SDS011;7770;52.158;5.372;2022-12-07T01:52:35;14.57;;;10.23;;
15340;SDS011;7770;52.158;5.372;2022-12-07T01:55:24;14.83;;;10.33;;
15340;SDS011;7770;52.158;5.372;2022-12-07T01:58:10;16.13;;;10.80;;
15340;SDS011;7770;52.158;5.372;2022-12-07T02:00:57;15.10;;;11.00;;
15340;SDS011;7770;52.158;5.372;2022-12-07T02:03:44;17.03;;;11.00;;
15340;SDS011;7770;52.158;5.372;2022-12-07T02:06:31;15.07;;;11.30;;
15340;SDS011;7770;52.158;5.372;2022-12-07T02:09:17;15.97;;;11.40;;
15340;SDS011;7770;52.158;5.372;2022-12-07T02:12:03;13.70;;;11.27;;
15340;SDS011;7770;52.158;5.372;2022-12-07T02:14:50;17.47;;;12.07;;
15340;SDS011;7770;52.158;5.372;2022-12-07T02:17:44;14.30;;;11.10;;
15340;SDS011;7770;52.158;5.372;2022-12-07T02:20:52;15.47;;;10.40;;
15340;SDS011;7770;52.158;5.372;2022-12-07T02:30:49;14.53;;;10.10;;
15340;SDS011;7770;52.158;5.372;2022-12-07T02:33:40;16.93;;;10.87;;
15340;SDS011;7770;52.158;5.372;2022-12-07T02:36:39;13.20;;;10.07;;
15340;SDS011;7770;52.158;5.372;2022-12-07T02:39:52;14.70;;;10.03;;
15340;SDS011;7770;52.158;5.372;2022-12-07T02:43:23;13.53;;;8.70;;
15340;SDS011;7770;52.158;5.372;2022-12-07T02:46:22;11.87;;;8.80;;
15340;SDS011;7770;52.158;5.372;2022-12-07T02:49:31;13.13;;;8.93;;
15340;SDS011;7770;52.158;5.372;2022-12-07T02:52:17;12.50;;;8.23;;
15340;SDS011;7770;52.158;5.372;2022-12-07T02:55:04;11.87;;;8.33;;
15340;SDS011;7770;52.158;5.372;2022-12-07T03:01:27;10.83;;;7.93;;
15340;SDS011;7770;52.158;5.372;2022-12-07T03:08:00;12.80;;;7.90;;
15340;SDS011;7770;52.158;5.372;2022-12-07T03:11:25;10.97;;;7.10;;
15340;SDS011;7770;52.158;5.372;2022-12-07T03:14:25;14.07;;;7.00;;
15340;SDS011;7770;52.158;5.372;2022-12-07T03:17:22;9.23;;;6.50;;
15340;SDS011;7770;52.158;5.372;2022-12-07T03:20:13;9.00;;;6.03;;
15340;SDS011;7770;52.158;5.372;2022-12-07T03:23:04;10.17;;;6.23;;
15340;SDS011;7770;52.158;5.372;2022-12-07T03:25:56;10.57;;;5.80;;
15340;SDS011;7770;52.158;5.372;2022-12-07T03:28:48;11.73;;;5.90;;
15340;SDS011;7770;52.158;5.372;2022-12-07T03:31:41;8.53;;;5.37;;
15340;SDS011;7770;52.158;5.372;2022-12-07T03:34:39;10.00;;;5.80;;
15340;SDS011;7770;52.158;5.372;2022-12-07T03:37:40;12.47;;;5.83;;
15340;SDS011;7770;52.158;5.372;2022-12-07T03:40:35;8.83;;;6.27;;
15340;SDS011;7770;52.158;5.372;2022-12-07T03:43:29;8.10;;;6.10;;
15340;SDS011;7770;52.158;5.372;2022-12-07T03:49:31;11.30;;;7.03;;
15340;SDS011;7770;52.158;5.372;2022-12-07T03:55:45;10.03;;;6.60;;
15340;SDS011;7770;52.158;5.372;2022-12-07T03:58:32;9.23;;;5.97;;
15340;SDS011;7770;52.158;5.372;2022-12-07T04:01:20;9.63;;;6.67;;
15340;SDS011;7770;52.158;5.372;2022-12-07T04:04:08;13.47;;;6.17;;
15340;SDS011;7770;52.158;5.372;2022-12-07T04:06:54;11.93;;;6.20;;
15340;SDS011;7770;52.158;5.372;2022-12-07T04:09:40;9.83;;;5.77;;
15340;SDS011;7770;52.158;5.372;2022-12-07T04:12:26;9.03;;;5.70;;
15340;SDS011;7770;52.158;5.372;2022-12-07T04:15:12;9.00;;;4.90;;
15340;SDS011;7770;52.158;5.372;2022-12-07T04:17:58;12.80;;;5.20;;
15340;SDS011;7770;52.158;5.372;2022-12-07T04:20:45;6.87;;;4.90;;
15340;SDS011;7770;52.158;5.372;2022-12-07T04:23:31;9.43;;;4.70;;
15340;SDS011;7770;52.158;5.372;2022-12-07T04:26:17;12.90;;;4.63;;
15340;SDS011;7770;52.158;5.372;2022-12-07T04:29:03;10.43;;;4.67;;
15340;SDS011;7770;52.158;5.372;2022-12-07T04:31:49;8.03;;;4.30;;
15340;SDS011;7770;52.158;5.372;2022-12-07T04:34:36;8.53;;;4.67;;
15340;SDS011;7770;52.158;5.372;2022-12-07T04:37:22;12.40;;;4.50;;
15340;SDS011;7770;52.158;5.372;2022-12-07T04:40:09;11.70;;;4.80;;
15340;SDS011;7770;52.158;5.372;2022-12-07T04:42:56;11.90;;;4.87;;
15340;SDS011;7770;52.158;5.372;2022-12-07T04:45:46;12.33;;;4.70;;
15340;SDS011;7770;52.158;5.372;2022-12-07T04:48:32;8.33;;;4.27;;
15340;SDS011;7770;52.158;5.372;2022-12-07T04:51:20;6.83;;;3.87;;
15340;SDS011;7770;52.158;5.372;2022-12-07T04:54:10;9.07;;;4.20;;
15340;SDS011;7770;52.158;5.372;2022-12-07T04:56:57;8.33;;;3.80;;
15340;SDS011;7770;52.158;5.372;2022-12-07T04:59:43;9.33;;;3.90;;
15340;SDS011;7770;52.158;5.372;2022-12-07T05:02:29;6.80;;;3.60;;
15340;SDS011;7770;52.158;5.372;2022-12-07T05:05:15;9.47;;;3.87;;
15340;SDS011;7770;52.158;5.372;2022-12-07T05:08:01;7.27;;;3.80;;
15340;SDS011;7770;52.158;5.372;2022-12-07T05:10:48;7.97;;;3.73;;
15340;SDS011;7770;52.158;5.372;2022-12-07T05:13:35;6.33;;;3.37;;
15340;SDS011;7770;52.158;5.372;2022-12-07T05:16:21;11.13;;;3.50;;
15340;SDS011;7770;52.158;5.372;2022-12-07T05:19:08;7.97;;;3.47;;
15340;SDS011;7770;52.158;5.372;2022-12-07T05:21:54;7.90;;;2.90;;
15340;SDS011;7770;52.158;5.372;2022-12-07T05:24:40;7.60;;;2.63;;
15340;SDS011;7770;52.158;5.372;2022-12-07T05:27:26;7.83;;;3.03;;
15340;SDS011;7770;52.158;5.372;2022-12-07T05:30:12;6.30;;;2.80;;
15340;SDS011;7770;52.158;5.372;2022-12-07T05:32:58;10.07;;;3.20;;
15340;SDS011;7770;52.158;5.372;2022-12-07T05:35:44;7.43;;;2.70;;
15340;SDS011;7770;52.158;5.372;2022-12-07T05:38:33;8.23;;;2.90;;
15340;SDS011;7770;52.158;5.372;2022-12-07T05:41:19;7.53;;;3.07;;
15340;SDS011;7770;52.158;5.372;2022-12-07T05:44:24;9.30;;;2.80;;
15340;SDS011;7770;52.158;5.372;2022-12-07T05:47:13;7.90;;;3.27;;
15340;SDS011;7770;52.158;5.372;2022-12-07T05:50:01;11.43;;;3.10;;
15340;SDS011;7770;52.158;5.372;2022-12-07T05:52:48;8.03;;;3.10;;
15340;SDS011;7770;52.158;5.372;2022-12-07T05:55:34;12.40;;;3.80;;
15340;SDS011;7770;52.158;5.372;2022-12-07T05:58:20;12.73;;;3.40;;
15340;SDS011;7770;52.158;5.372;2022-12-07T06:01:24;9.37;;;3.17;;
15340;SDS011;7770;52.158;5.372;2022-12-07T06:04:10;8.30;;;3.27;;
15340;SDS011;7770;52.158;5.372;2022-12-07T06:06:56;17.33;;;3.70;;
15340;SDS011;7770;52.158;5.372;2022-12-07T06:09:42;8.40;;;3.53;;
15340;SDS011;7770;52.158;5.372;2022-12-07T06:12:29;12.43;;;3.90;;
15340;SDS011;7770;52.158;5.372;2022-12-07T06:15:20;10.13;;;3.80;;
15340;SDS011;7770;52.158;5.372;2022-12-07T06:18:08;10.77;;;3.73;;
15340;SDS011;7770;52.158;5.372;2022-12-07T06:20:54;8.90;;;3.30;;
15340;SDS011;7770;52.158;5.372;2022-12-07T06:23:40;9.73;;;4.00;;
15340;SDS011;7770;52.158;5.372;2022-12-07T06:26:26;13.77;;;4.20;;
15340;SDS011;7770;52.158;5.372;2022-12-07T06:29:12;9.17;;;4.23;;
15340;SDS011;7770;52.158;5.372;2022-12-07T06:31:59;7.40;;;4.03;;
15340;SDS011;7770;52.158;5.372;2022-12-07T06:34:45;8.37;;;4.10;;
15340;SDS011;7770;52.158;5.372;2022-12-07T06:37:32;10.90;;;4.00;;
15340;SDS011;7770;52.158;5.372;2022-12-07T06:40:18;9.23;;;4.10;;
15340;SDS011;7770;52.158;5.372;2022-12-07T06:43:04;13.00;;;4.13;;
15340;SDS011;7770;52.158;5.372;2022-12-07T06:45:50;12.17;;;4.33;;
15340;SDS011;7770;52.158;5.372;2022-12-07T06:48:36;6.93;;;3.97;;
15340;SDS011;7770;52.158;5.372;2022-12-07T06:51:22;13.77;;;4.00;;
15340;SDS011;7770;52.158;5.372;2022-12-07T06:54:12;8.93;;;3.90;;
15340;SDS011;7770;52.158;5.372;2022-12-07T06:56:59;12.80;;;4.77;;
15340;SDS011;7770;52.158;5.372;2022-12-07T06:59:45;12.40;;;4.53;;
15340;SDS011;7770;52.158;5.372;2022-12-07T07:02:31;12.90;;;4.53;;
15340;SDS011;7770;52.158;5.372;2022-12-07T07:05:17;11.13;;;4.47;;
15340;SDS011;7770;52.158;5.372;2022-12-07T07:08:03;7.83;;;4.40;;
15340;SDS011;7770;52.158;5.372;2022-12-07T07:10:50;7.43;;;4.03;;
15340;SDS011;7770;52.158;5.372;2022-12-07T07:13:36;15.90;;;5.23;;
15340;SDS011;7770;52.158;5.372;2022-12-07T07:16:23;11.67;;;5.33;;
15340;SDS011;7770;52.158;5.372;2022-12-07T07:19:09;13.67;;;5.03;;
15340;SDS011;7770;52.158;5.372;2022-12-07T07:21:55;12.23;;;5.30;;
15340;SDS011;7770;52.158;5.372;2022-12-07T07:24:41;9.20;;;4.87;;
15340;SDS011;7770;52.158;5.372;2022-12-07T07:27:27;8.77;;;5.03;;
15340;SDS011;7770;52.158;5.372;2022-12-07T07:30:13;12.90;;;6.17;;
15340;SDS011;7770;52.158;5.372;2022-12-07T07:32:59;9.90;;;5.50;;
15340;SDS011;7770;52.158;5.372;2022-12-07T07:35:46;13.70;;;5.17;;
15340;SDS011;7770;52.158;5.372;2022-12-07T07:38:32;12.53;;;5.20;;
15340;SDS011;7770;52.158;5.372;2022-12-07T07:41:19;11.27;;;5.13;;
15340;SDS011;7770;52.158;5.372;2022-12-07T07:44:05;7.67;;;4.87;;
15340;SDS011;7770;52.158;5.372;2022-12-07T07:46:50;9.67;;;5.00;;
15340;SDS011;7770;52.158;5.372;2022-12-07T07:49:36;10.10;;;5.27;;
15340;SDS011;7770;52.158;5.372;2022-12-07T07:52:23;11.87;;;5.20;;
15340;SDS011;7770;52.158;5.372;2022-12-07T07:55:09;11.77;;;5.50;;
15340;SDS011;7770;52.158;5.372;2022-12-07T07:57:55;10.73;;;5.67;;
15340;SDS011;7770;52.158;5.372;2022-12-07T08:00:41;9.97;;;5.40;;
15340;SDS011;7770;52.158;5.372;2022-12-07T08:03:27;11.57;;;5.73;;
15340;SDS011;7770;52.158;5.372;2022-12-07T08:06:14;11.17;;;5.33;;
15340;SDS011;7770;52.158;5.372;2022-12-07T08:09:00;12.60;;;5.33;;
15340;SDS011;7770;52.158;5.372;2022-12-07T08:11:46;8.23;;;4.30;;
15340;SDS011;7770;52.158;5.372;2022-12-07T08:14:32;9.33;;;4.30;;
15340;SDS011;7770;52.158;5.372;2022-12-07T08:17:18;11.90;;;4.60;;
15340;SDS011;7770;52.158;5.372;2022-12-07T08:20:04;8.53;;;4.30;;
15340;SDS011;7770;52.158;5.372;2022-12-07T08:22:51;11.20;;;4.13;;
15340;SDS011;7770;52.158;5.372;2022-12-07T08:25:37;10.93;;;4.70;;
15340;SDS011;7770;52.158;5.372;2022-12-07T08:28:24;10.93;;;4.23;;
15340;SDS011;7770;52.158;5.372;2022-12-07T08:31:12;14.60;;;4.30;;
15340;SDS011;7770;52.158;5.372;2022-12-07T08:34:01;8.37;;;3.63;;
15340;SDS011;7770;52.158;5.372;2022-12-07T08:36:47;8.13;;;3.10;;
15340;SDS011;7770;52.158;5.372;2022-12-07T08:39:33;6.13;;;2.87;;
15340;SDS011;7770;52.158;5.372;2022-12-07T08:42:20;6.87;;;3.20;;
15340;SDS011;7770;52.158;5.372;2022-12-07T08:45:09;7.37;;;2.97;;
15340;SDS011;7770;52.158;5.372;2022-12-07T08:48:06;8.00;;;3.60;;
15340;SDS011;7770;52.158;5.372;2022-12-07T08:50:55;5.70;;;3.30;;
15340;SDS011;7770;52.158;5.372;2022-12-07T08:53:42;8.00;;;3.00;;
15340;SDS011;7770;52.158;5.372;2022-12-07T08:56:30;6.83;;;2.90;;
15340;SDS011;7770;52.158;5.372;2022-12-07T08:59:16;9.60;;;3.27;;
15340;SDS011;7770;52.158;5.372;2022-12-07T09:02:05;5.07;;;2.80;;
15340;SDS011;7770;52.158;5.372;2022-12-07T09:04:51;8.23;;;3.20;;
15340;SDS011;7770;52.158;5.372;2022-12-07T09:07:37;6.07;;;2.90;;
15340;SDS011;7770;52.158;5.372;2022-12-07T09:10:24;7.33;;;3.10;;
15340;SDS011;7770;52.158;5.372;2022-12-07T09:13:11;6.57;;;2.90;;
15340;SDS011;7770;52.158;5.372;2022-12-07T09:15:57;8.20;;;2.83;;
15340;SDS011;7770;52.158;5.372;2022-12-07T09:18:43;4.83;;;2.63;;
15340;SDS011;7770;52.158;5.372;2022-12-07T09:21:29;4.63;;;2.43;;
15340;SDS011;7770;52.158;5.372;2022-12-07T09:24:15;7.27;;;2.90;;
15340;SDS011;7770;52.158;5.372;2022-12-07T09:27:01;7.77;;;2.77;;
15340;SDS011;7770;52.158;5.372;2022-12-07T09:29:47;6.17;;;2.60;;
15340;SDS011;7770;52.158;5.372;2022-12-07T09:32:33;4.20;;;2.60;;
15340;SDS011;7770;52.158;5.372;2022-12-07T09:35:20;7.37;;;2.63;;
15340;SDS011;7770;52.158;5.372;2022-12-07T09:38:06;6.20;;;3.10;;
15340;SDS011;7770;52.158;5.372;2022-12-07T09:40:53;6.03;;;2.63;;
15340;SDS011;7770;52.158;5.372;2022-12-07T09:43:40;7.07;;;3.00;;
15340;SDS011;7770;52.158;5.372;2022-12-07T09:46:27;6.57;;;3.10;;
15340;SDS011;7770;52.158;5.372;2022-12-07T09:49:16;4.00;;;2.80;;
15340;SDS011;7770;52.158;5.372;2022-12-07T09:55:11;6.73;;;2.80;;
15340;SDS011;7770;52.158;5.372;2022-12-07T09:58:00;8.20;;;3.27;;
15340;SDS011;7770;52.158;5.372;2022-12-07T10:00:46;5.50;;;2.57;;
15340;SDS011;7770;52.158;5.372;2022-12-07T10:03:32;8.10;;;3.07;;
15340;SDS011;7770;52.158;5.372;2022-12-07T10:06:20;4.70;;;2.70;;
15340;SDS011;7770;52.158;5.372;2022-12-07T10:09:10;6.17;;;2.87;;
15340;SDS011;7770;52.158;5.372;2022-12-07T10:12:06;6.07;;;2.30;;
15340;SDS011;7770;52.158;5.372;2022-12-07T10:15:00;5.13;;;2.50;;
15340;SDS011;7770;52.158;5.372;2022-12-07T10:17:51;5.10;;;2.53;;
15340;SDS011;7770;52.158;5.372;2022-12-07T10:20:37;6.07;;;2.50;;
15340;SDS011;7770;52.158;5.372;2022-12-07T10:23:23;6.97;;;2.60;;
15340;SDS011;7770;52.158;5.372;2022-12-07T10:26:19;5.90;;;2.40;;
15340;SDS011;7770;52.158;5.372;2022-12-07T10:29:36;6.80;;;2.73;;
15340;SDS011;7770;52.158;5.372;2022-12-07T10:32:34;7.70;;;3.07;;
15340;SDS011;7770;52.158;5.372;2022-12-07T10:35:25;7.03;;;2.77;;
15340;SDS011;7770;52.158;5.372;2022-12-07T10:38:16;5.07;;;2.80;;
15340;SDS011;7770;52.158;5.372;2022-12-07T10:41:06;5.30;;;2.50;;
15340;SDS011;7770;52.158;5.372;2022-12-07T10:43:53;4.83;;;2.50;;
15340;SDS011;7770;52.158;5.372;2022-12-07T10:46:44;5.93;;;2.70;;
15340;SDS011;7770;52.158;5.372;2022-12-07T10:50:01;8.83;;;2.70;;
15340;SDS011;7770;52.158;5.372;2022-12-07T10:56:02;4.73;;;2.57;;
15340;SDS011;7770;52.158;5.372;2022-12-07T11:02:06;6.23;;;2.90;;
15340;SDS011;7770;52.158;5.372;2022-12-07T11:08:47;5.60;;;2.50;;
15340;SDS011;7770;52.158;5.372;2022-12-07T11:12:01;6.07;;;2.50;;
15340;SDS011;7770;52.158;5.372;2022-12-07T11:15:18;5.57;;;2.63;;
15340;SDS011;7770;52.158;5.372;2022-12-07T11:19:16;8.93;;;2.70;;
15340;SDS011;7770;52.158;5.372;2022-12-07T11:21:56;4.47;;;2.53;;
15340;SDS011;7770;52.158;5.372;2022-12-07T11:25:08;5.97;;;3.57;;
15340;SDS011;7770;52.158;5.372;2022-12-07T11:31:48;7.53;;;2.90;;
15340;SDS011;7770;52.158;5.372;2022-12-07T11:35:22;6.23;;;2.93;;
15340;SDS011;7770;52.158;5.372;2022-12-07T11:38:38;7.43;;;2.47;;
15340;SDS011;7770;52.158;5.372;2022-12-07T11:41:38;5.07;;;2.77;;
15340;SDS011;7770;52.158;5.372;2022-12-07T11:44:45;5.87;;;2.60;;
15340;SDS011;7770;52.158;5.372;2022-12-07T11:47:43;5.03;;;2.60;;
15340;SDS011;7770;52.158;5.372;2022-12-07T11:50:46;8.67;;;2.80;;
15340;SDS011;7770;52.158;5.372;2022-12-07T11:53:39;5.43;;;2.57;;
15340;SDS011;7770;52.158;5.372;2022-12-07T11:56:30;5.57;;;2.57;;
15340;SDS011;7770;52.158;5.372;2022-12-07T11:59:33;5.50;;;2.60;;
15340;SDS011;7770;52.158;5.372;2022-12-07T12:02:31;5.73;;;2.80;;
15340;SDS011;7770;52.158;5.372;2022-12-07T12:05:31;4.37;;;2.50;;
15340;SDS011;7770;52.158;5.372;2022-12-07T12:08:22;5.13;;;2.53;;
15340;SDS011;7770;52.158;5.372;2022-12-07T12:18:05;4.90;;;2.40;;
15340;SDS011;7770;52.158;5.372;2022-12-07T12:21:19;5.80;;;2.57;;
15340;SDS011;7770;52.158;5.372;2022-12-07T12:24:14;6.53;;;2.90;;
15340;SDS011;7770;52.158;5.372;2022-12-07T12:27:47;6.23;;;2.30;;
15340;SDS011;7770;52.158;5.372;2022-12-07T12:30:30;5.87;;;2.40;;
15340;SDS011;7770;52.158;5.372;2022-12-07T12:33:28;7.33;;;2.67;;
15340;SDS011;7770;52.158;5.372;2022-12-07T12:39:20;9.00;;;2.80;;
15340;SDS011;7770;52.158;5.372;2022-12-07T12:42:18;4.70;;;2.20;;
15340;SDS011;7770;52.158;5.372;2022-12-07T12:45:25;5.67;;;2.30;;
15340;SDS011;7770;52.158;5.372;2022-12-07T12:48:29;4.40;;;2.50;;
15340;SDS011;7770;52.158;5.372;2022-12-07T12:51:38;6.80;;;2.30;;
15340;SDS011;7770;52.158;5.372;2022-12-07T12:54:27;4.83;;;2.20;;
15340;SDS011;7770;52.158;5.372;2022-12-07T13:00:20;4.67;;;1.67;;
15340;SDS011;7770;52.158;5.372;2022-12-07T13:03:20;3.90;;;1.60;;
15340;SDS011;7770;52.158;5.372;2022-12-07T13:09:15;2.60;;;1.37;;
15340;SDS011;7770;52.158;5.372;2022-12-07T13:12:14;1.17;;;1.00;;
15340;SDS011;7770;52.158;5.372;2022-12-07T13:15:01;1.93;;;1.20;;
15340;SDS011;7770;52.158;5.372;2022-12-07T13:17:54;2.33;;;1.13;;
15340;SDS011;7770;52.158;5.372;2022-12-07T13:20:46;1.93;;;1.53;;
15340;SDS011;7770;52.158;5.372;2022-12-07T13:26:36;2.23;;;1.57;;
15340;SDS011;7770;52.158;5.372;2022-12-07T13:29:26;3.33;;;1.53;;
15340;SDS011;7770;52.158;5.372;2022-12-07T13:32:26;3.00;;;1.40;;
15340;SDS011;7770;52.158;5.372;2022-12-07T13:35:48;3.00;;;1.70;;
15340;SDS011;7770;52.158;5.372;2022-12-07T13:38:28;4.10;;;3.23;;
15340;SDS011;7770;52.158;5.372;2022-12-07T13:41:18;7.63;;;2.87;;
15340;SDS011;7770;52.158;5.372;2022-12-07T13:44:15;5.00;;;2.30;;
15340;SDS011;7770;52.158;5.372;2022-12-07T13:47:13;5.60;;;2.40;;
15340;SDS011;7770;52.158;5.372;2022-12-07T13:53:12;4.17;;;3.10;;
15340;SDS011;7770;52.158;5.372;2022-12-07T13:56:00;5.43;;;3.73;;
15340;SDS011;7770;52.158;5.372;2022-12-07T13:58:46;5.20;;;4.27;;
15340;SDS011;7770;52.158;5.372;2022-12-07T14:01:32;6.40;;;3.23;;
15340;SDS011;7770;52.158;5.372;2022-12-07T14:07:27;5.23;;;3.10;;
15340;SDS011;7770;52.158;5.372;2022-12-07T14:10:27;6.17;;;3.00;;
15340;SDS011;7770;52.158;5.372;2022-12-07T14:13:35;6.17;;;3.10;;
15340;SDS011;7770;52.158;5.372;2022-12-07T14:16:34;8.67;;;4.50;;
15340;SDS011;7770;52.158;5.372;2022-12-07T14:22:36;6.33;;;3.90;;
15340;SDS011;7770;52.158;5.372;2022-12-07T14:25:24;5.53;;;3.53;;
15340;SDS011;7770;52.158;5.372;2022-12-07T14:28:28;7.27;;;4.00;;
15340;SDS011;7770;52.158;5.372;2022-12-07T14:31:21;6.37;;;4.30;;
15340;SDS011;7770;52.158;5.372;2022-12-07T14:34:13;10.47;;;5.50;;
15340;SDS011;7770;52.158;5.372;2022-12-07T14:36:59;12.97;;;9.87;;
15340;SDS011;7770;52.158;5.372;2022-12-07T14:39:45;14.17;;;6.83;;
15340;SDS011;7770;52.158;5.372;2022-12-07T14:42:31;7.73;;;4.87;;
15340;SDS011;7770;52.158;5.372;2022-12-07T14:45:20;7.13;;;3.30;;
15340;SDS011;7770;52.158;5.372;2022-12-07T14:48:10;9.97;;;6.53;;
15340;SDS011;7770;52.158;5.372;2022-12-07T14:50:58;10.63;;;5.30;;
15340;SDS011;7770;52.158;5.372;2022-12-07T14:53:46;9.83;;;3.23;;
15340;SDS011;7770;52.158;5.372;2022-12-07T14:56:35;6.57;;;2.70;;
15340;SDS011;7770;52.158;5.372;2022-12-07T14:59:21;4.30;;;2.50;;
15340;SDS011;7770;52.158;5.372;2022-12-07T15:02:09;3.53;;;2.20;;
15340;SDS011;7770;52.158;5.372;2022-12-07T15:04:57;5.10;;;2.33;;
15340;SDS011;7770;52.158;5.372;2022-12-07T15:07:44;5.30;;;2.30;;
15340;SDS011;7770;52.158;5.372;2022-12-07T15:10:32;5.10;;;2.90;;
15340;SDS011;7770;52.158;5.372;2022-12-07T15:13:19;5.77;;;2.30;;
15340;SDS011;7770;52.158;5.372;2022-12-07T15:16:23;6.77;;;2.50;;
15340;SDS011;7770;52.158;5.372;2022-12-07T15:19:13;5.23;;;3.13;;
15340;SDS011;7770;52.158;5.372;2022-12-07T15:22:03;5.10;;;3.67;;
15340;SDS011;7770;52.158;5.372;2022-12-07T15:24:49;6.43;;;3.50;;
15340;SDS011;7770;52.158;5.372;2022-12-07T15:27:35;5.93;;;3.80;;
15340;SDS011;7770;52.158;5.372;2022-12-07T15:30:21;8.23;;;3.93;;
15340;SDS011;7770;52.158;5.372;2022-12-07T15:33:07;6.90;;;5.27;;
15340;SDS011;7770;52.158;5.372;2022-12-07T15:35:54;9.43;;;5.90;;
15340;SDS011;7770;52.158;5.372;2022-12-07T15:38:40;7.67;;;5.50;;
15340;SDS011;7770;52.158;5.372;2022-12-07T15:41:26;13.13;;;5.47;;
15340;SDS011;7770;52.158;5.372;2022-12-07T15:44:12;9.93;;;5.90;;
15340;SDS011;7770;52.158;5.372;2022-12-07T15:47:17;7.60;;;5.30;;
15340;SDS011;7770;52.158;5.372;2022-12-07T15:50:04;9.30;;;6.17;;
15340;SDS011;7770;52.158;5.372;2022-12-07T15:52:53;5.17;;;3.90;;
15340;SDS011;7770;52.158;5.372;2022-12-07T15:55:39;10.63;;;5.80;;
15340;SDS011;7770;52.158;5.372;2022-12-07T15:58:26;7.43;;;4.67;;
15340;SDS011;7770;52.158;5.372;2022-12-07T16:01:14;10.07;;;6.40;;
15340;SDS011;7770;52.158;5.372;2022-12-07T16:04:03;8.83;;;5.63;;
15340;SDS011;7770;52.158;5.372;2022-12-07T16:06:49;9.50;;;4.47;;
15340;SDS011;7770;52.158;5.372;2022-12-07T16:09:36;5.87;;;3.23;;
15340;SDS011;7770;52.158;5.372;2022-12-07T16:12:22;6.97;;;3.20;;
15340;SDS011;7770;52.158;5.372;2022-12-07T16:15:10;6.80;;;4.47;;
15340;SDS011;7770;52.158;5.372;2022-12-07T16:17:56;12.17;;;6.93;;
15340;SDS011;7770;52.158;5.372;2022-12-07T16:20:42;9.20;;;5.87;;
15340;SDS011;7770;52.158;5.372;2022-12-07T16:23:28;8.90;;;3.17;;
15340;SDS011;7770;52.158;5.372;2022-12-07T16:26:15;7.57;;;4.37;;
15340;SDS011;7770;52.158;5.372;2022-12-07T16:29:05;7.37;;;3.87;;
15340;SDS011;7770;52.158;5.372;2022-12-07T16:31:51;6.50;;;4.00;;
15340;SDS011;7770;52.158;5.372;2022-12-07T16:34:38;7.63;;;3.03;;
15340;SDS011;7770;52.158;5.372;2022-12-07T16:37:25;6.47;;;3.90;;
15340;SDS011;7770;52.158;5.372;2022-12-07T16:40:14;6.83;;;3.90;;
15340;SDS011;7770;52.158;5.372;2022-12-07T16:43:00;10.73;;;7.03;;
15340;SDS011;7770;52.158;5.372;2022-12-07T16:45:46;8.20;;;6.90;;
15340;SDS011;7770;52.158;5.372;2022-12-07T16:48:39;9.47;;;5.33;;
15340;SDS011;7770;52.158;5.372;2022-12-07T16:51:25;8.57;;;6.80;;
15340;SDS011;7770;52.158;5.372;2022-12-07T16:54:11;7.93;;;4.47;;
15340;SDS011;7770;52.158;5.372;2022-12-07T16:56:58;9.33;;;5.07;;
15340;SDS011;7770;52.158;5.372;2022-12-07T16:59:44;11.10;;;3.97;;
15340;SDS011;7770;52.158;5.372;2022-12-07T17:02:30;13.53;;;8.30;;
15340;SDS011;7770;52.158;5.372;2022-12-07T17:05:16;9.00;;;6.87;;
15340;SDS011;7770;52.158;5.372;2022-12-07T17:08:02;7.70;;;4.67;;
15340;SDS011;7770;52.158;5.372;2022-12-07T17:10:48;6.50;;;3.53;;
15340;SDS011;7770;52.158;5.372;2022-12-07T17:13:34;13.47;;;8.87;;
15340;SDS011;7770;52.158;5.372;2022-12-07T17:16:39;13.70;;;9.33;;
15340;SDS011;7770;52.158;5.372;2022-12-07T17:19:25;14.40;;;8.03;;
15340;SDS011;7770;52.158;5.372;2022-12-07T17:22:11;12.27;;;6.80;;
15340;SDS011;7770;52.158;5.372;2022-12-07T17:24:57;7.97;;;5.03;;
15340;SDS011;7770;52.158;5.372;2022-12-07T17:27:44;6.90;;;4.67;;
15340;SDS011;7770;52.158;5.372;2022-12-07T17:30:31;10.63;;;4.97;;
15340;SDS011;7770;52.158;5.372;2022-12-07T17:33:17;11.47;;;5.00;;
15340;SDS011;7770;52.158;5.372;2022-12-07T17:38:58;6.87;;;4.50;;
15340;SDS011;7770;52.158;5.372;2022-12-07T17:41:44;13.47;;;6.57;;
15340;SDS011;7770;52.158;5.372;2022-12-07T17:44:48;11.10;;;7.40;;
15340;SDS011;7770;52.158;5.372;2022-12-07T17:47:35;10.20;;;6.10;;
15340;SDS011;7770;52.158;5.372;2022-12-07T17:50:22;8.40;;;5.87;;
15340;SDS011;7770;52.158;5.372;2022-12-07T17:53:28;6.43;;;4.20;;
15340;SDS011;7770;52.158;5.372;2022-12-07T17:56:14;8.07;;;3.73;;
15340;SDS011;7770;52.158;5.372;2022-12-07T17:59:00;5.70;;;3.33;;
15340;SDS011;7770;52.158;5.372;2022-12-07T18:01:46;6.43;;;3.70;;
15340;SDS011;7770;52.158;5.372;2022-12-07T18:04:32;12.67;;;9.33;;
15340;SDS011;7770;52.158;5.372;2022-12-07T18:07:18;19.00;;;14.63;;
15340;SDS011;7770;52.158;5.372;2022-12-07T18:10:04;49.63;;;33.20;;
15340;SDS011;7770;52.158;5.372;2022-12-07T18:12:53;23.23;;;17.17;;
15340;SDS011;7770;52.158;5.372;2022-12-07T18:15:59;45.83;;;34.90;;
15340;SDS011;7770;52.158;5.372;2022-12-07T18:18:45;43.97;;;35.60;;
15340;SDS011;7770;52.158;5.372;2022-12-07T18:21:32;51.17;;;42.10;;
15340;SDS011;7770;52.158;5.372;2022-12-07T18:24:18;52.90;;;41.17;;